Barachois, Canada
Current Conditions -  °F | °C
As of 6:00 AM on Wednesday 22 Oct 2014 (Local Time) from CYGP Reporting Station
Few Clouds Few Clouds  
Wind Chill: 28°   Ceiling: Unl
Heat Index: 28°   Visibility: 15mi
Dew Point: 28°   Wind: 2mph
Humidity: 100%   Direction: 270°W
Pressure: 30.45"   Gusts: NA
Location:  48.62°N, 64.28°W
Report Text: CYGP 221000Z 27002KT 15SM FEW025 M02/M02 A3045 RMK SC2 FROIN SLP314
Loading
Personal Weather Stations






























Interactive Weather Map
Tropical Storm Tracking
New forecast layout! Learn more

10-Day Weather Forecast

Advertisements
Track Severe Weather on mobile